createdAt,value
2023-01-08T00:01:35.375Z,6.07
2023-01-08T00:04:02.554Z,6.10
2023-01-08T00:06:29.152Z,6.10
2023-01-08T00:08:55.767Z,6.14
2023-01-08T00:11:22.532Z,6.13
2023-01-08T00:13:49.109Z,6.10
2023-01-08T00:16:17.975Z,6.10
2023-01-08T00:18:46.857Z,6.09
2023-01-08T00:21:13.880Z,6.13
2023-01-08T00:23:40.646Z,6.09
2023-01-08T00:26:09.285Z,6.11
2023-01-08T00:28:36.621Z,6.10
2023-01-08T00:31:12.353Z,6.09
2023-01-08T00:33:40.406Z,6.07
2023-01-08T00:36:09.217Z,6.14
2023-01-08T00:38:36.008Z,6.13
2023-01-08T00:41:03.022Z,6.10
2023-01-08T00:43:29.696Z,6.14
2023-01-08T00:45:56.555Z,6.17
2023-01-08T00:48:24.752Z,6.18
2023-01-08T00:50:53.013Z,6.16
2023-01-08T00:53:21.268Z,6.17
2023-01-08T00:55:47.934Z,6.17
2023-01-08T00:58:16.351Z,6.14
2023-01-08T01:00:43.104Z,6.08
2023-01-08T01:03:09.753Z,6.13
2023-01-08T01:05:36.693Z,6.14
2023-01-08T01:08:03.419Z,6.08
2023-01-08T01:10:30.092Z,6.16
2023-01-08T01:12:56.798Z,6.19
2023-01-08T01:15:23.390Z,6.08
2023-01-08T01:17:50.037Z,6.11
2023-01-08T01:20:17.162Z,6.15
2023-01-08T01:22:44.204Z,6.07
2023-01-08T01:25:11.079Z,6.12
2023-01-08T01:27:37.792Z,5.99
2023-01-08T01:30:05.256Z,5.95
2023-01-08T01:32:32.098Z,5.88
2023-01-08T01:34:58.628Z,5.86
2023-01-08T01:37:25.276Z,5.84
2023-01-08T01:39:51.815Z,5.90
2023-01-08T01:42:38.596Z,5.85
2023-01-08T01:45:24.389Z,5.86
2023-01-08T01:48:02.068Z,5.89
2023-01-08T01:50:46.536Z,5.90
2023-01-08T01:53:19.931Z,5.90
2023-01-08T01:55:48.044Z,5.86
2023-01-08T01:58:30.029Z,5.88
2023-01-08T02:01:01.226Z,5.88
2023-01-08T02:03:31.539Z,5.96
2023-01-08T02:06:15.072Z,5.92
2023-01-08T02:08:57.688Z,5.99
2023-01-08T02:11:47.614Z,6.01
2023-01-08T02:14:25.303Z,6.00
2023-01-08T02:17:01.054Z,6.00
2023-01-08T02:19:53.235Z,6.08
2023-01-08T02:22:39.319Z,6.10
2023-01-08T02:25:20.877Z,6.04
2023-01-08T02:27:50.582Z,5.99
2023-01-08T02:30:18.189Z,5.98
2023-01-08T02:32:44.953Z,5.94
2023-01-08T02:35:12.000Z,5.96
2023-01-08T02:37:39.068Z,5.94
2023-01-08T02:40:20.231Z,5.96
2023-01-08T02:43:00.158Z,5.95
2023-01-08T02:45:26.725Z,6.03
2023-01-08T02:48:14.583Z,5.91
2023-01-08T02:50:44.725Z,5.88
2023-01-08T02:53:16.144Z,5.94
2023-01-08T02:55:46.951Z,5.94
2023-01-08T02:58:16.016Z,5.96
2023-01-08T03:00:45.123Z,5.95
2023-01-08T03:03:24.169Z,5.85
2023-01-08T03:05:55.853Z,5.85
2023-01-08T03:08:23.447Z,5.86
2023-01-08T03:10:55.710Z,5.87
2023-01-08T03:13:30.556Z,5.83
2023-01-08T03:16:01.207Z,5.83
2023-01-08T03:18:38.006Z,5.78
2023-01-08T03:21:06.302Z,5.72
2023-01-08T03:23:37.111Z,5.75
2023-01-08T03:26:05.511Z,5.78
2023-01-08T03:28:42.065Z,5.78
2023-01-08T03:31:09.890Z,5.79
2023-01-08T03:33:37.913Z,5.81
2023-01-08T03:36:06.981Z,5.80
2023-01-08T03:38:39.357Z,5.81
2023-01-08T03:41:11.523Z,5.86
2023-01-08T03:43:38.255Z,5.81
2023-01-08T03:46:10.027Z,5.80
2023-01-08T03:48:38.578Z,5.76
2023-01-08T03:51:09.630Z,5.79
2023-01-08T03:53:36.925Z,5.72
2023-01-08T03:56:03.703Z,5.80
2023-01-08T03:58:30.369Z,5.78
2023-01-08T04:00:57.035Z,5.79
2023-01-08T04:03:24.767Z,5.81
2023-01-08T04:05:51.368Z,5.74
2023-01-08T04:08:18.132Z,5.80
2023-01-08T04:10:44.774Z,5.83
2023-01-08T04:13:12.559Z,5.80
2023-01-08T04:15:39.277Z,5.76
2023-01-08T04:18:05.912Z,5.73
2023-01-08T04:20:32.504Z,5.70
2023-01-08T04:22:59.130Z,5.73
2023-01-08T04:25:25.716Z,5.74
2023-01-08T04:27:52.379Z,5.69
2023-01-08T04:30:18.956Z,5.67
2023-01-08T04:32:45.851Z,5.71
2023-01-08T04:35:12.426Z,5.69
2023-01-08T04:37:39.030Z,5.68
2023-01-08T04:40:06.459Z,5.71
2023-01-08T04:42:33.122Z,5.71
2023-01-08T04:45:00.154Z,5.73
2023-01-08T04:47:28.002Z,5.67
2023-01-08T04:49:54.679Z,5.70
2023-01-08T04:52:21.408Z,5.66
2023-01-08T04:54:48.081Z,5.67
2023-01-08T04:57:15.316Z,5.64
2023-01-08T04:59:41.967Z,5.62
2023-01-08T05:02:09.248Z,5.64
2023-01-08T05:04:35.928Z,5.67
2023-01-08T05:07:04.359Z,5.69
2023-01-08T05:09:31.165Z,5.64
2023-01-08T05:11:57.792Z,5.64
2023-01-08T05:14:24.498Z,5.66
2023-01-08T05:16:51.287Z,5.61
2023-01-08T05:19:17.895Z,5.61
2023-01-08T05:21:44.566Z,5.66
2023-01-08T05:24:11.183Z,5.59
2023-01-08T05:26:37.835Z,5.59
2023-01-08T05:29:04.424Z,5.64
2023-01-08T05:31:31.174Z,5.58
2023-01-08T05:33:58.870Z,5.61
2023-01-08T05:36:26.790Z,5.57
2023-01-08T05:38:53.565Z,5.54
2023-01-08T05:41:20.258Z,5.51
2023-01-08T05:43:47.306Z,5.48
2023-01-08T05:46:14.041Z,5.51
2023-01-08T05:48:40.692Z,5.51
2023-01-08T05:51:07.445Z,5.53
2023-01-08T05:53:34.082Z,5.54
2023-01-08T05:56:02.912Z,5.56
2023-01-08T05:58:31.998Z,5.48
2023-01-08T06:01:07.751Z,5.46
2023-01-08T06:03:34.579Z,5.50
2023-01-08T06:06:03.110Z,5.58
2023-01-08T06:08:30.836Z,5.51
2023-01-08T06:11:02.101Z,5.61
2023-01-08T06:13:29.438Z,5.58
2023-01-08T06:15:59.393Z,5.51
2023-01-08T06:18:27.315Z,5.51
2023-01-08T06:20:54.006Z,5.42
2023-01-08T06:23:21.946Z,5.43
2023-01-08T06:25:57.572Z,5.38
2023-01-08T06:28:24.576Z,5.40
2023-01-08T06:30:51.700Z,5.41
2023-01-08T06:33:21.411Z,5.39
2023-01-08T06:35:48.639Z,5.43
2023-01-08T06:38:15.729Z,5.48
2023-01-08T06:40:42.385Z,5.41
2023-01-08T06:43:09.074Z,5.42
2023-01-08T06:45:35.716Z,5.39
2023-01-08T06:48:03.692Z,5.31
2023-01-08T06:50:32.875Z,5.30
2023-01-08T06:52:59.780Z,5.36
2023-01-08T06:55:26.863Z,5.34
2023-01-08T06:57:58.078Z,5.35
2023-01-08T07:00:26.374Z,5.37
2023-01-08T07:02:55.656Z,5.27
2023-01-08T07:05:22.827Z,5.29
2023-01-08T07:07:50.203Z,5.24
2023-01-08T07:10:19.893Z,5.25
2023-01-08T07:12:47.189Z,5.26
2023-01-08T07:15:14.114Z,5.23
2023-01-08T07:17:41.013Z,5.13
2023-01-08T07:20:09.520Z,5.11
2023-01-08T07:22:36.345Z,5.14
2023-01-08T07:25:02.878Z,5.13
2023-01-08T07:27:29.393Z,5.16
2023-01-08T07:29:56.071Z,5.18
2023-01-08T07:32:23.112Z,5.28
2023-01-08T07:34:49.985Z,5.24
2023-01-08T07:37:16.622Z,5.29
2023-01-08T07:39:43.185Z,5.29
2023-01-08T07:42:09.711Z,5.29
2023-01-08T07:44:36.257Z,5.28
2023-01-08T07:47:02.777Z,5.27
2023-01-08T07:49:29.408Z,5.17
2023-01-08T07:51:56.138Z,5.04
2023-01-08T07:54:22.721Z,4.95
2023-01-08T07:56:49.298Z,4.99
2023-01-08T07:59:15.952Z,4.97
2023-01-08T08:01:42.859Z,5.03
2023-01-08T08:04:09.536Z,5.11
2023-01-08T08:06:36.085Z,5.12
2023-01-08T08:09:03.768Z,5.16
2023-01-08T08:11:30.368Z,5.18
2023-01-08T08:13:57.131Z,5.17
2023-01-08T08:16:23.741Z,5.26
2023-01-08T08:18:50.787Z,5.34
2023-01-08T08:21:18.749Z,5.28
2023-01-08T08:23:45.307Z,5.27
2023-01-08T08:26:11.913Z,5.28
2023-01-08T08:28:38.529Z,5.24
2023-01-08T08:31:05.493Z,5.28
2023-01-08T08:33:32.219Z,5.29
2023-01-08T08:35:59.417Z,5.27
2023-01-08T08:38:26.605Z,5.29
2023-01-08T08:40:55.345Z,5.36
2023-01-08T08:43:21.938Z,5.38
2023-01-08T08:45:51.314Z,5.33
2023-01-08T08:48:18.071Z,5.37
2023-01-08T08:50:44.655Z,5.32
2023-01-08T08:53:14.133Z,5.29
2023-01-08T08:55:43.769Z,5.28
2023-01-08T08:58:12.705Z,5.21
2023-01-08T09:00:41.353Z,5.30
2023-01-08T09:03:13.584Z,5.31
2023-01-08T09:05:40.633Z,5.37
2023-01-08T09:08:07.373Z,5.47
2023-01-08T09:10:33.992Z,5.41
2023-01-08T09:13:00.613Z,5.32
2023-01-08T09:15:27.393Z,5.31
2023-01-08T09:17:56.017Z,5.30
2023-01-08T09:20:23.607Z,5.37
2023-01-08T09:22:50.593Z,5.36
2023-01-08T09:25:17.668Z,5.32
2023-01-08T09:27:46.730Z,5.31
2023-01-08T09:30:13.418Z,5.32
2023-01-08T09:32:40.027Z,5.30
2023-01-08T09:35:07.198Z,5.30
2023-01-08T09:37:33.777Z,5.24
2023-01-08T09:40:02.595Z,5.31
2023-01-08T09:42:31.904Z,5.30
2023-01-08T09:45:02.033Z,5.29
2023-01-08T09:47:38.353Z,5.23
2023-01-08T09:50:11.433Z,5.24
2023-01-08T09:52:45.442Z,5.25
2023-01-08T09:55:16.673Z,5.29
2023-01-08T09:57:44.635Z,5.28
2023-01-08T10:00:15.442Z,5.40
2023-01-08T10:02:43.148Z,5.38
2023-01-08T10:05:18.255Z,5.27
2023-01-08T10:07:48.161Z,5.33
2023-01-08T10:10:25.658Z,5.37
2023-01-08T10:12:53.659Z,5.29
2023-01-08T10:15:21.990Z,5.29
2023-01-08T10:18:07.677Z,5.33
2023-01-08T10:20:34.803Z,5.47
2023-01-08T10:24:15.275Z,5.48
2023-01-08T10:26:41.979Z,5.45
2023-01-08T10:29:10.319Z,5.34
2023-01-08T10:31:52.665Z,5.35
2023-01-08T10:34:26.259Z,5.37
2023-01-08T10:36:54.740Z,5.29
2023-01-08T10:39:25.630Z,5.29
2023-01-08T10:41:55.495Z,5.29
2023-01-08T10:44:24.534Z,5.30
2023-01-08T10:46:56.009Z,5.28
2023-01-08T10:49:54.877Z,5.25
2023-01-08T10:52:33.550Z,5.25
2023-01-08T10:55:26.668Z,5.41
2023-01-08T10:57:57.996Z,5.45
2023-01-08T11:00:30.354Z,5.43
2023-01-08T11:03:08.909Z,5.35
2023-01-08T11:05:38.358Z,5.35
2023-01-08T11:08:08.339Z,5.43
2023-01-08T11:10:37.133Z,5.42
2023-01-08T11:13:07.272Z,5.44
2023-01-08T11:15:39.055Z,5.50
2023-01-08T11:18:18.565Z,5.47
2023-01-08T11:20:46.570Z,5.49
2023-01-08T11:23:20.289Z,5.54
2023-01-08T11:26:03.451Z,5.61
2023-01-08T11:28:56.405Z,5.73
2023-01-08T11:31:42.018Z,5.74
2023-01-08T11:34:26.378Z,5.73
2023-01-08T11:37:24.766Z,5.69
2023-01-08T11:40:02.492Z,5.56
2023-01-08T11:42:48.253Z,5.59
2023-01-08T11:45:33.168Z,5.63
2023-01-08T11:48:14.517Z,5.64
2023-01-08T11:51:02.378Z,5.67
2023-01-08T11:53:37.920Z,5.73
2023-01-08T11:56:31.719Z,5.75
2023-01-08T11:59:18.879Z,5.70
2023-01-08T12:02:01.109Z,5.68
2023-01-08T12:04:58.331Z,5.73
2023-01-08T12:08:05.551Z,5.69
2023-01-08T12:10:35.350Z,5.72
2023-01-08T12:13:02.045Z,5.67
2023-01-08T12:15:37.732Z,5.68
2023-01-08T12:18:40.937Z,5.54
2023-01-08T12:21:33.272Z,5.55
2023-01-08T12:24:16.328Z,5.45
2023-01-08T12:26:54.972Z,5.44
2023-01-08T12:29:47.913Z,5.48
2023-01-08T12:32:22.435Z,5.54
2023-01-08T12:34:49.001Z,5.46
2023-01-08T12:37:23.039Z,5.38
2023-01-08T12:40:04.256Z,5.28
2023-01-08T12:42:33.577Z,5.26
2023-01-08T12:45:03.911Z,5.30
2023-01-08T12:47:35.702Z,5.33
2023-01-08T12:50:32.803Z,5.39
2023-01-08T12:53:02.787Z,5.45
2023-01-08T12:55:44.791Z,5.57
2023-01-08T12:58:24.675Z,5.57
2023-01-08T13:01:27.966Z,5.53
2023-01-08T13:03:55.611Z,5.42
2023-01-08T13:06:23.037Z,5.42
2023-01-08T13:08:54.702Z,5.44
2023-01-08T13:11:38.644Z,5.39
2023-01-08T13:14:10.973Z,5.37
2023-01-08T13:16:40.140Z,5.34
2023-01-08T13:19:22.042Z,5.41
2023-01-08T13:21:57.889Z,5.26
2023-01-08T13:24:35.680Z,5.38
2023-01-08T13:27:31.854Z,5.41
2023-01-08T13:29:58.601Z,5.39
2023-01-08T13:32:47.357Z,5.40
2023-01-08T13:35:18.209Z,5.40
2023-01-08T13:37:47.095Z,5.43
2023-01-08T13:40:38.800Z,5.50
2023-01-08T13:43:14.666Z,5.62
2023-01-08T13:45:42.858Z,5.69
2023-01-08T13:48:25.070Z,5.68
2023-01-08T13:50:52.203Z,5.69
2023-01-08T13:53:20.516Z,5.60
2023-01-08T13:56:00.001Z,5.54
2023-01-08T13:58:34.335Z,5.51
2023-01-08T14:01:07.979Z,5.53
2023-01-08T14:03:44.699Z,5.50
2023-01-08T14:06:19.373Z,5.37
2023-01-08T14:09:00.723Z,5.36
2023-01-08T14:11:37.697Z,5.47
2023-01-08T14:14:11.854Z,5.56
2023-01-08T14:16:38.730Z,5.55
2023-01-08T14:19:05.614Z,5.41
2023-01-08T14:21:32.442Z,5.45
2023-01-08T14:23:59.253Z,5.40
2023-01-08T14:26:37.700Z,5.40
2023-01-08T14:29:32.952Z,5.39
2023-01-08T14:32:01.755Z,5.40
2023-01-08T14:34:42.858Z,5.42
2023-01-08T14:37:16.829Z,5.48
2023-01-08T14:39:45.824Z,5.51
2023-01-08T14:42:44.341Z,5.50
2023-01-08T14:45:29.652Z,5.52
2023-01-08T14:48:08.662Z,5.51
2023-01-08T14:50:39.285Z,5.48
2023-01-08T14:53:18.128Z,5.50
2023-01-08T14:55:49.109Z,5.49
2023-01-08T14:58:22.624Z,5.50
2023-01-08T15:01:05.864Z,5.42
2023-01-08T15:03:40.566Z,5.43
2023-01-08T15:06:07.627Z,5.49
2023-01-08T15:08:43.830Z,5.45
2023-01-08T15:11:19.406Z,5.47
2023-01-08T15:13:47.587Z,5.48
2023-01-08T15:16:55.300Z,5.49
2023-01-08T15:19:27.841Z,5.50
2023-01-08T15:21:57.860Z,5.43
2023-01-08T15:24:35.142Z,5.43
2023-01-08T15:27:12.486Z,5.43
2023-01-08T15:29:51.590Z,5.45
2023-01-08T15:32:18.348Z,5.49
2023-01-08T15:34:46.152Z,5.49
2023-01-08T15:37:14.702Z,5.46
2023-01-08T15:39:42.086Z,5.43
2023-01-08T15:42:39.617Z,5.42
2023-01-08T15:45:17.835Z,5.33
2023-01-08T15:47:44.610Z,5.33
2023-01-08T15:50:12.060Z,5.28
2023-01-08T15:52:41.575Z,5.29
2023-01-08T15:55:16.372Z,5.26
2023-01-08T15:57:43.339Z,5.26
2023-01-08T16:00:13.468Z,5.21
2023-01-08T16:02:46.679Z,5.20
2023-01-08T16:05:14.932Z,5.14
2023-01-08T16:07:41.534Z,5.17
2023-01-08T16:10:09.275Z,5.16
2023-01-08T16:12:36.531Z,5.17
2023-01-08T16:15:03.489Z,5.23
2023-01-08T16:17:30.357Z,5.21
2023-01-08T16:19:57.102Z,5.13
2023-01-08T16:22:23.736Z,5.15
2023-01-08T16:24:50.323Z,5.15
2023-01-08T16:27:17.311Z,5.11
2023-01-08T16:29:45.062Z,5.14
2023-01-08T16:32:11.702Z,5.15
2023-01-08T16:34:38.480Z,5.18
2023-01-08T16:37:05.056Z,5.22
2023-01-08T16:39:32.546Z,5.22
2023-01-08T16:41:59.153Z,5.22
2023-01-08T16:44:28.874Z,5.23
2023-01-08T16:46:56.163Z,5.24
2023-01-08T16:49:22.937Z,5.29
2023-01-08T17:29:22.067Z,5.03
2023-01-08T17:31:48.910Z,5.01
2023-01-08T17:34:15.552Z,5.00
2023-01-08T17:36:42.493Z,5.26
2023-01-08T17:39:11.468Z,5.33
2023-01-08T17:41:56.641Z,5.38
2023-01-08T17:44:23.554Z,5.40
2023-01-08T17:46:50.183Z,5.38
2023-01-08T17:49:17.428Z,5.42
2023-01-08T17:51:45.856Z,5.08
2023-01-08T17:54:15.172Z,5.06
2023-01-08T17:56:42.650Z,5.07
2023-01-08T17:59:13.483Z,5.07
2023-01-08T18:01:40.110Z,5.06
2023-01-08T18:04:06.680Z,5.08
2023-01-08T18:06:33.456Z,5.06
2023-01-08T18:09:00.305Z,5.08
2023-01-08T18:11:27.677Z,5.03
2023-01-08T18:13:58.986Z,5.06
2023-01-08T18:16:26.330Z,5.02
2023-01-08T18:18:53.194Z,5.05
2023-01-08T18:21:19.924Z,5.05
2023-01-08T18:23:47.644Z,5.04
2023-01-08T18:26:17.572Z,5.00
2023-01-08T18:28:44.753Z,4.98
2023-01-08T18:31:12.379Z,4.99
2023-01-08T18:33:39.907Z,5.00
2023-01-08T18:36:12.482Z,4.98
2023-01-08T18:38:41.850Z,5.02
2023-01-08T18:41:09.612Z,5.03
2023-01-08T18:43:36.656Z,5.04
2023-01-08T18:46:06.600Z,5.04
2023-01-08T18:48:34.872Z,5.08
2023-01-08T18:51:05.822Z,5.09
2023-01-08T18:53:33.516Z,5.10
2023-01-08T18:56:01.183Z,5.08
2023-01-08T18:58:28.782Z,5.08
2023-01-08T19:00:55.425Z,5.05
2023-01-08T19:03:22.061Z,5.08
2023-01-08T19:05:48.642Z,5.07
2023-01-08T19:08:15.184Z,5.11
2023-01-08T19:10:41.769Z,5.06
2023-01-08T19:13:08.520Z,5.07
2023-01-08T19:15:35.892Z,5.06
2023-01-08T19:18:05.049Z,5.03
2023-01-08T19:20:31.707Z,5.03
2023-01-08T19:22:58.260Z,4.97
2023-01-08T19:25:24.886Z,4.96
2023-01-08T19:27:51.495Z,4.94
2023-01-08T19:30:18.161Z,4.89
2023-01-08T19:32:46.339Z,4.88
2023-01-08T19:35:13.953Z,4.93
2023-01-08T19:37:40.529Z,4.86
2023-01-08T19:40:07.731Z,4.86
2023-01-08T19:42:53.655Z,4.88
2023-01-08T19:45:20.299Z,4.89
2023-01-08T19:47:46.880Z,4.87
2023-01-08T19:50:13.506Z,4.88
2023-01-08T19:52:40.079Z,4.89
2023-01-08T19:55:06.874Z,4.85
2023-01-08T19:57:33.600Z,4.77
2023-01-08T20:00:00.232Z,4.81
2023-01-08T20:02:27.008Z,4.81
2023-01-08T20:04:53.716Z,4.77
2023-01-08T20:07:21.382Z,4.75
2023-01-08T20:09:47.920Z,4.74
2023-01-08T20:12:15.382Z,4.77
2023-01-08T20:14:42.712Z,4.73
2023-01-08T20:17:10.062Z,4.70
2023-01-08T20:19:36.981Z,4.68
2023-01-08T20:22:03.641Z,4.66
2023-01-08T20:24:30.612Z,4.63
2023-01-08T20:26:57.198Z,4.53
2023-01-08T20:29:23.836Z,4.43
2023-01-08T20:31:56.752Z,4.46
2023-01-08T20:34:24.586Z,4.43
2023-01-08T20:36:51.438Z,4.32
2023-01-08T20:39:18.818Z,4.26
2023-01-08T20:41:55.296Z,4.11
2023-01-08T20:44:30.859Z,4.00
2023-01-08T20:46:57.473Z,3.96
2023-01-08T20:49:26.468Z,3.97
2023-01-08T20:51:59.900Z,3.95
2023-01-08T20:54:27.870Z,3.93
2023-01-08T20:56:59.707Z,3.82
2023-01-08T20:59:26.965Z,3.66
2023-01-08T21:01:54.577Z,3.66
2023-01-08T21:04:21.611Z,3.63
2023-01-08T21:06:48.457Z,3.57
2023-01-08T21:09:16.625Z,3.43
2023-01-08T21:11:43.683Z,3.33
2023-01-08T21:14:10.933Z,3.33
2023-01-08T21:16:40.369Z,3.28
2023-01-08T21:19:10.196Z,3.33
2023-01-08T21:21:40.230Z,3.27
2023-01-08T21:24:09.190Z,3.18
2023-01-08T21:26:37.448Z,3.08
2023-01-08T21:29:06.359Z,3.03
2023-01-08T21:31:34.138Z,2.98
2023-01-08T21:34:02.129Z,2.95
2023-01-08T21:36:31.386Z,2.82
2023-01-08T21:38:59.955Z,2.77
2023-01-08T21:41:46.566Z,2.72
2023-01-08T21:44:34.911Z,2.68
2023-01-08T21:47:03.110Z,2.64
2023-01-08T21:49:29.871Z,2.67
2023-01-08T21:52:25.600Z,2.68
2023-01-08T21:54:52.724Z,2.66
2023-01-08T21:57:19.593Z,2.64
2023-01-08T21:59:49.514Z,2.61
2023-01-08T22:02:18.012Z,2.60
2023-01-08T22:04:45.507Z,2.61
2023-01-08T22:07:12.403Z,2.61
2023-01-08T22:09:39.139Z,2.63
2023-01-08T22:12:06.865Z,2.66
2023-01-08T22:14:33.756Z,2.66
2023-01-08T22:17:00.344Z,2.69
2023-01-08T22:19:26.984Z,2.72
2023-01-08T22:21:53.487Z,2.70
2023-01-08T22:24:20.075Z,2.67
2023-01-08T22:26:48.294Z,2.70
2023-01-08T22:29:14.810Z,2.77
2023-01-08T22:31:41.535Z,2.79
2023-01-08T22:34:09.514Z,2.83
2023-01-08T22:36:36.171Z,2.87
2023-01-08T22:39:02.715Z,2.88
2023-01-08T22:41:29.283Z,2.90
2023-01-08T22:43:56.714Z,2.95
2023-01-08T22:46:24.371Z,2.97
2023-01-08T22:48:51.377Z,3.00
2023-01-08T22:51:20.562Z,3.00
2023-01-08T22:53:47.199Z,3.02
2023-01-08T22:56:14.429Z,3.07
2023-01-08T22:58:42.438Z,3.09
2023-01-08T23:01:13.101Z,3.07
2023-01-08T23:03:43.008Z,3.09
2023-01-08T23:06:14.220Z,3.10
2023-01-08T23:08:42.486Z,3.13
2023-01-08T23:11:10.948Z,3.16
2023-01-08T23:13:38.499Z,3.17
2023-01-08T23:16:07.876Z,3.14
2023-01-08T23:18:36.126Z,3.17
2023-01-08T23:21:05.235Z,3.21
2023-01-08T23:23:32.111Z,3.21
2023-01-08T23:26:09.929Z,3.24
2023-01-08T23:28:36.761Z,3.27
2023-01-08T23:31:08.749Z,3.29
2023-01-08T23:33:36.167Z,3.29
2023-01-08T23:36:03.283Z,3.31
2023-01-08T23:38:30.016Z,3.34
2023-01-08T23:40:57.437Z,3.32
2023-01-08T23:43:24.223Z,3.39
2023-01-08T23:45:51.348Z,3.42
2023-01-08T23:48:18.037Z,3.48
2023-01-08T23:50:44.602Z,3.49
2023-01-08T23:53:11.244Z,3.56
2023-01-08T23:55:37.853Z,3.61
2023-01-08T23:58:04.543Z,3.68
